sensor_id;sensor_type;location;lat;lon;timestamp;P1;durP1;ratioP1;P2;durP2;ratioP2
20441;SDS011;10380;52.102;20.614;2023-09-12T00:02:13;23.27;;;17.65;;
20441;SDS011;10380;52.102;20.614;2023-09-12T00:04:40;21.83;;;17.42;;
20441;SDS011;10380;52.102;20.614;2023-09-12T00:07:08;25.95;;;17.60;;
20441;SDS011;10380;52.102;20.614;2023-09-12T00:09:34;28.75;;;18.38;;
20441;SDS011;10380;52.102;20.614;2023-09-12T00:12:02;24.90;;;17.73;;
20441;SDS011;10380;52.102;20.614;2023-09-12T00:14:29;20.88;;;17.33;;
20441;SDS011;10380;52.102;20.614;2023-09-12T00:16:56;21.55;;;17.05;;
20441;SDS011;10380;52.102;20.614;2023-09-12T00:19:23;19.50;;;16.77;;
20441;SDS011;10380;52.102;20.614;2023-09-12T00:21:50;20.80;;;17.10;;
20441;SDS011;10380;52.102;20.614;2023-09-12T00:24:17;22.83;;;17.27;;
20441;SDS011;10380;52.102;20.614;2023-09-12T00:26:44;21.17;;;17.13;;
20441;SDS011;10380;52.102;20.614;2023-09-12T00:29:11;25.17;;;17.02;;
20441;SDS011;10380;52.102;20.614;2023-09-12T00:31:39;19.95;;;17.20;;
20441;SDS011;10380;52.102;20.614;2023-09-12T00:34:06;25.75;;;18.20;;
20441;SDS011;10380;52.102;20.614;2023-09-12T00:36:33;22.02;;;17.90;;
20441;SDS011;10380;52.102;20.614;2023-09-12T00:39:00;20.73;;;17.65;;
20441;SDS011;10380;52.102;20.614;2023-09-12T00:41:27;22.95;;;17.88;;
20441;SDS011;10380;52.102;20.614;2023-09-12T00:43:54;20.10;;;17.60;;
20441;SDS011;10380;52.102;20.614;2023-09-12T00:46:21;22.08;;;17.10;;
20441;SDS011;10380;52.102;20.614;2023-09-12T00:48:49;26.95;;;17.75;;
20441;SDS011;10380;52.102;20.614;2023-09-12T00:51:18;19.98;;;17.55;;
20441;SDS011;10380;52.102;20.614;2023-09-12T00:53:48;19.25;;;16.13;;
20441;SDS011;10380;52.102;20.614;2023-09-12T00:56:15;23.75;;;17.90;;
20441;SDS011;10380;52.102;20.614;2023-09-12T00:58:42;18.10;;;16.10;;
20441;SDS011;10380;52.102;20.614;2023-09-12T01:01:10;24.17;;;17.92;;
20441;SDS011;10380;52.102;20.614;2023-09-12T01:03:37;22.33;;;16.58;;
20441;SDS011;10380;52.102;20.614;2023-09-12T01:06:05;24.67;;;17.77;;
20441;SDS011;10380;52.102;20.614;2023-09-12T01:08:34;23.23;;;17.75;;
20441;SDS011;10380;52.102;20.614;2023-09-12T01:11:04;23.55;;;18.50;;
20441;SDS011;10380;52.102;20.614;2023-09-12T01:13:32;24.75;;;17.42;;
20441;SDS011;10380;52.102;20.614;2023-09-12T01:15:59;19.58;;;17.17;;
20441;SDS011;10380;52.102;20.614;2023-09-12T01:18:26;22.48;;;17.17;;
20441;SDS011;10380;52.102;20.614;2023-09-12T01:26:37;27.98;;;19.27;;
20441;SDS011;10380;52.102;20.614;2023-09-12T01:29:15;29.73;;;17.08;;
20441;SDS011;10380;52.102;20.614;2023-09-12T01:31:45;23.48;;;16.20;;
20441;SDS011;10380;52.102;20.614;2023-09-12T01:34:14;22.40;;;17.45;;
20441;SDS011;10380;52.102;20.614;2023-09-12T01:36:41;22.58;;;17.48;;
20441;SDS011;10380;52.102;20.614;2023-09-12T01:39:08;23.33;;;17.48;;
20441;SDS011;10380;52.102;20.614;2023-09-12T01:41:37;21.75;;;16.50;;
20441;SDS011;10380;52.102;20.614;2023-09-12T01:44:07;21.05;;;18.48;;
20441;SDS011;10380;52.102;20.614;2023-09-12T01:46:35;19.92;;;16.75;;
20441;SDS011;10380;52.102;20.614;2023-09-12T01:49:04;24.73;;;17.70;;
20441;SDS011;10380;52.102;20.614;2023-09-12T01:51:33;18.98;;;16.38;;
20441;SDS011;10380;52.102;20.614;2023-09-12T01:54:01;23.10;;;18.00;;
20441;SDS011;10380;52.102;20.614;2023-09-12T01:56:29;21.33;;;17.05;;
20441;SDS011;10380;52.102;20.614;2023-09-12T01:58:57;21.52;;;17.55;;
20441;SDS011;10380;52.102;20.614;2023-09-12T02:01:25;19.55;;;16.30;;
20441;SDS011;10380;52.102;20.614;2023-09-12T02:03:54;19.70;;;17.65;;
20441;SDS011;10380;52.102;20.614;2023-09-12T02:06:21;22.10;;;16.92;;
20441;SDS011;10380;52.102;20.614;2023-09-12T02:08:48;18.98;;;15.90;;
20441;SDS011;10380;52.102;20.614;2023-09-12T02:11:16;20.00;;;16.55;;
20441;SDS011;10380;52.102;20.614;2023-09-12T02:13:43;21.35;;;16.90;;
20441;SDS011;10380;52.102;20.614;2023-09-12T02:16:10;29.90;;;20.85;;
20441;SDS011;10380;52.102;20.614;2023-09-12T02:18:38;33.42;;;23.38;;
20441;SDS011;10380;52.102;20.614;2023-09-12T02:21:05;34.55;;;25.33;;
20441;SDS011;10380;52.102;20.614;2023-09-12T02:23:32;38.50;;;26.42;;
20441;SDS011;10380;52.102;20.614;2023-09-12T02:25:59;37.13;;;25.88;;
20441;SDS011;10380;52.102;20.614;2023-09-12T02:28:26;35.75;;;25.98;;
20441;SDS011;10380;52.102;20.614;2023-09-12T02:30:53;32.10;;;23.75;;
20441;SDS011;10380;52.102;20.614;2023-09-12T02:33:22;29.38;;;22.27;;
20441;SDS011;10380;52.102;20.614;2023-09-12T02:35:51;27.00;;;22.33;;
20441;SDS011;10380;52.102;20.614;2023-09-12T02:38:18;25.83;;;20.33;;
20441;SDS011;10380;52.102;20.614;2023-09-12T02:40:46;27.45;;;21.67;;
20441;SDS011;10380;52.102;20.614;2023-09-12T02:43:13;29.58;;;20.63;;
20441;SDS011;10380;52.102;20.614;2023-09-12T02:45:40;31.92;;;20.58;;
20441;SDS011;10380;52.102;20.614;2023-09-12T02:48:07;25.25;;;20.30;;
20441;SDS011;10380;52.102;20.614;2023-09-12T02:50:35;26.25;;;20.80;;
20441;SDS011;10380;52.102;20.614;2023-09-12T02:53:02;29.33;;;21.35;;
20441;SDS011;10380;52.102;20.614;2023-09-12T02:55:29;31.33;;;22.35;;
20441;SDS011;10380;52.102;20.614;2023-09-12T02:57:57;24.38;;;20.85;;
20441;SDS011;10380;52.102;20.614;2023-09-12T03:00:24;29.92;;;20.40;;
20441;SDS011;10380;52.102;20.614;2023-09-12T03:02:52;28.95;;;20.42;;
20441;SDS011;10380;52.102;20.614;2023-09-12T03:05:19;24.30;;;19.83;;
20441;SDS011;10380;52.102;20.614;2023-09-12T03:07:46;27.35;;;19.60;;
20441;SDS011;10380;52.102;20.614;2023-09-12T03:10:13;29.02;;;20.83;;
20441;SDS011;10380;52.102;20.614;2023-09-12T03:12:40;30.02;;;19.30;;
20441;SDS011;10380;52.102;20.614;2023-09-12T03:15:07;25.23;;;19.67;;
20441;SDS011;10380;52.102;20.614;2023-09-12T03:17:36;24.05;;;19.58;;
20441;SDS011;10380;52.102;20.614;2023-09-12T03:20:04;22.85;;;18.40;;
20441;SDS011;10380;52.102;20.614;2023-09-12T03:22:34;20.35;;;17.13;;
20441;SDS011;10380;52.102;20.614;2023-09-12T03:25:04;24.73;;;17.30;;
20441;SDS011;10380;52.102;20.614;2023-09-12T03:27:32;25.73;;;18.90;;
20441;SDS011;10380;52.102;20.614;2023-09-12T03:29:59;20.42;;;17.35;;
20441;SDS011;10380;52.102;20.614;2023-09-12T03:32:27;18.63;;;16.42;;
20441;SDS011;10380;52.102;20.614;2023-09-12T03:34:55;20.95;;;16.88;;
20441;SDS011;10380;52.102;20.614;2023-09-12T03:37:22;18.75;;;16.08;;
20441;SDS011;10380;52.102;20.614;2023-09-12T03:39:53;20.40;;;17.45;;
20441;SDS011;10380;52.102;20.614;2023-09-12T03:42:20;24.17;;;17.27;;
20441;SDS011;10380;52.102;20.614;2023-09-12T03:44:47;23.25;;;16.35;;
20441;SDS011;10380;52.102;20.614;2023-09-12T03:47:15;17.92;;;16.02;;
20441;SDS011;10380;52.102;20.614;2023-09-12T03:49:42;21.02;;;16.38;;
20441;SDS011;10380;52.102;20.614;2023-09-12T03:52:09;19.13;;;16.48;;
20441;SDS011;10380;52.102;20.614;2023-09-12T03:54:36;22.25;;;16.60;;
20441;SDS011;10380;52.102;20.614;2023-09-12T03:57:05;19.85;;;17.80;;
20441;SDS011;10380;52.102;20.614;2023-09-12T03:59:35;21.08;;;16.58;;
20441;SDS011;10380;52.102;20.614;2023-09-12T04:02:02;18.13;;;16.23;;
20441;SDS011;10380;52.102;20.614;2023-09-12T04:04:30;19.95;;;16.60;;
20441;SDS011;10380;52.102;20.614;2023-09-12T04:06:57;19.92;;;16.27;;
20441;SDS011;10380;52.102;20.614;2023-09-12T04:09:24;20.70;;;16.45;;
20441;SDS011;10380;52.102;20.614;2023-09-12T04:11:53;19.85;;;16.70;;
20441;SDS011;10380;52.102;20.614;2023-09-12T04:14:20;22.77;;;17.35;;
20441;SDS011;10380;52.102;20.614;2023-09-12T04:16:47;18.55;;;16.05;;
20441;SDS011;10380;52.102;20.614;2023-09-12T04:19:15;19.50;;;17.48;;
20441;SDS011;10380;52.102;20.614;2023-09-12T04:21:41;22.90;;;18.08;;
20441;SDS011;10380;52.102;20.614;2023-09-12T04:24:09;20.50;;;16.70;;
20441;SDS011;10380;52.102;20.614;2023-09-12T04:26:36;29.15;;;17.90;;
20441;SDS011;10380;52.102;20.614;2023-09-12T04:29:04;21.67;;;17.33;;
20441;SDS011;10380;52.102;20.614;2023-09-12T04:31:31;20.15;;;17.65;;
20441;SDS011;10380;52.102;20.614;2023-09-12T04:36:28;19.50;;;17.15;;
20441;SDS011;10380;52.102;20.614;2023-09-12T04:38:55;19.45;;;16.75;;
20441;SDS011;10380;52.102;20.614;2023-09-12T04:41:22;21.95;;;17.13;;
20441;SDS011;10380;52.102;20.614;2023-09-12T04:43:49;24.20;;;16.80;;
20441;SDS011;10380;52.102;20.614;2023-09-12T04:46:17;18.90;;;16.80;;
20441;SDS011;10380;52.102;20.614;2023-09-12T04:48:44;22.33;;;16.70;;
20441;SDS011;10380;52.102;20.614;2023-09-12T04:51:11;23.10;;;16.67;;
20441;SDS011;10380;52.102;20.614;2023-09-12T04:53:39;19.52;;;17.35;;
20441;SDS011;10380;52.102;20.614;2023-09-12T04:56:06;27.70;;;18.80;;
20441;SDS011;10380;52.102;20.614;2023-09-12T04:58:36;19.88;;;16.98;;
20441;SDS011;10380;52.102;20.614;2023-09-12T05:01:03;19.33;;;17.20;;
20441;SDS011;10380;52.102;20.614;2023-09-12T05:03:30;22.23;;;16.75;;
20441;SDS011;10380;52.102;20.614;2023-09-12T05:05:59;22.20;;;17.77;;
20441;SDS011;10380;52.102;20.614;2023-09-12T05:08:26;20.58;;;17.13;;
20441;SDS011;10380;52.102;20.614;2023-09-12T05:10:53;22.13;;;17.27;;
20441;SDS011;10380;52.102;20.614;2023-09-12T05:13:20;25.23;;;17.92;;
20441;SDS011;10380;52.102;20.614;2023-09-12T05:15:47;25.55;;;18.38;;
20441;SDS011;10380;52.102;20.614;2023-09-12T05:18:14;23.67;;;17.42;;
20441;SDS011;10380;52.102;20.614;2023-09-12T05:20:41;25.17;;;17.88;;
20441;SDS011;10380;52.102;20.614;2023-09-12T05:23:09;22.50;;;18.70;;
20441;SDS011;10380;52.102;20.614;2023-09-12T05:25:37;21.70;;;17.27;;
20441;SDS011;10380;52.102;20.614;2023-09-12T05:28:05;21.58;;;17.23;;
20441;SDS011;10380;52.102;20.614;2023-09-12T05:30:33;19.48;;;17.27;;
20441;SDS011;10380;52.102;20.614;2023-09-12T05:33:02;22.15;;;17.70;;
20441;SDS011;10380;52.102;20.614;2023-09-12T05:35:29;22.38;;;17.85;;
20441;SDS011;10380;52.102;20.614;2023-09-12T05:37:57;21.20;;;18.17;;
20441;SDS011;10380;52.102;20.614;2023-09-12T05:40:24;25.73;;;18.42;;
20441;SDS011;10380;52.102;20.614;2023-09-12T05:42:51;25.10;;;17.70;;
20441;SDS011;10380;52.102;20.614;2023-09-12T05:45:18;22.52;;;17.88;;
20441;SDS011;10380;52.102;20.614;2023-09-12T05:47:45;23.95;;;18.00;;
20441;SDS011;10380;52.102;20.614;2023-09-12T05:50:13;30.25;;;17.50;;
20441;SDS011;10380;52.102;20.614;2023-09-12T05:52:41;23.85;;;18.20;;
20441;SDS011;10380;52.102;20.614;2023-09-12T05:55:09;19.50;;;16.00;;
20441;SDS011;10380;52.102;20.614;2023-09-12T05:57:36;22.30;;;17.83;;
20441;SDS011;10380;52.102;20.614;2023-09-12T06:00:04;23.00;;;17.85;;
20441;SDS011;10380;52.102;20.614;2023-09-12T06:02:32;24.30;;;18.48;;
20441;SDS011;10380;52.102;20.614;2023-09-12T06:04:59;20.48;;;17.35;;
20441;SDS011;10380;52.102;20.614;2023-09-12T06:07:27;27.23;;;18.63;;
20441;SDS011;10380;52.102;20.614;2023-09-12T06:09:55;20.63;;;17.80;;
20441;SDS011;10380;52.102;20.614;2023-09-12T06:12:22;24.13;;;18.08;;
20441;SDS011;10380;52.102;20.614;2023-09-12T06:14:50;27.33;;;18.83;;
20441;SDS011;10380;52.102;20.614;2023-09-12T06:17:19;22.38;;;18.73;;
20441;SDS011;10380;52.102;20.614;2023-09-12T06:19:47;27.48;;;20.25;;
20441;SDS011;10380;52.102;20.614;2023-09-12T06:22:18;29.52;;;20.20;;
20441;SDS011;10380;52.102;20.614;2023-09-12T06:24:46;28.55;;;19.50;;
20441;SDS011;10380;52.102;20.614;2023-09-12T06:27:15;24.90;;;19.88;;
20441;SDS011;10380;52.102;20.614;2023-09-12T06:29:46;26.67;;;18.70;;
20441;SDS011;10380;52.102;20.614;2023-09-12T06:32:15;27.13;;;19.73;;
20441;SDS011;10380;52.102;20.614;2023-09-12T06:34:42;28.38;;;19.65;;
20441;SDS011;10380;52.102;20.614;2023-09-12T06:37:10;24.95;;;19.75;;
20441;SDS011;10380;52.102;20.614;2023-09-12T06:39:38;28.08;;;19.27;;
20441;SDS011;10380;52.102;20.614;2023-09-12T06:42:06;33.83;;;20.23;;
20441;SDS011;10380;52.102;20.614;2023-09-12T06:44:34;31.90;;;21.33;;
20441;SDS011;10380;52.102;20.614;2023-09-12T06:47:03;27.23;;;20.63;;
20441;SDS011;10380;52.102;20.614;2023-09-12T06:49:30;31.75;;;21.52;;
20441;SDS011;10380;52.102;20.614;2023-09-12T06:52:02;33.42;;;20.40;;
20441;SDS011;10380;52.102;20.614;2023-09-12T06:54:30;33.60;;;20.65;;
20441;SDS011;10380;52.102;20.614;2023-09-12T06:56:57;30.08;;;22.38;;
20441;SDS011;10380;52.102;20.614;2023-09-12T06:59:24;32.28;;;22.00;;
20441;SDS011;10380;52.102;20.614;2023-09-12T07:01:51;32.13;;;19.60;;
20441;SDS011;10380;52.102;20.614;2023-09-12T07:04:18;30.08;;;19.38;;
20441;SDS011;10380;52.102;20.614;2023-09-12T07:06:45;31.38;;;21.15;;
20441;SDS011;10380;52.102;20.614;2023-09-12T07:09:12;34.38;;;20.85;;
20441;SDS011;10380;52.102;20.614;2023-09-12T07:11:41;30.33;;;19.70;;
20441;SDS011;10380;52.102;20.614;2023-09-12T07:14:09;25.40;;;19.70;;
20441;SDS011;10380;52.102;20.614;2023-09-12T07:16:36;33.30;;;19.38;;
20441;SDS011;10380;52.102;20.614;2023-09-12T07:19:03;31.15;;;20.27;;
20441;SDS011;10380;52.102;20.614;2023-09-12T07:21:31;26.40;;;19.48;;
20441;SDS011;10380;52.102;20.614;2023-09-12T07:23:59;28.73;;;18.73;;
20441;SDS011;10380;52.102;20.614;2023-09-12T07:26:26;31.58;;;18.08;;
20441;SDS011;10380;52.102;20.614;2023-09-12T07:28:54;26.38;;;18.88;;
20441;SDS011;10380;52.102;20.614;2023-09-12T07:31:21;22.95;;;17.38;;
20441;SDS011;10380;52.102;20.614;2023-09-12T07:33:48;25.70;;;17.30;;
20441;SDS011;10380;52.102;20.614;2023-09-12T07:36:15;22.80;;;17.55;;
20441;SDS011;10380;52.102;20.614;2023-09-12T07:38:42;23.80;;;18.92;;
20441;SDS011;10380;52.102;20.614;2023-09-12T07:41:11;22.52;;;16.00;;
20441;SDS011;10380;52.102;20.614;2023-09-12T07:43:38;22.67;;;15.63;;
20441;SDS011;10380;52.102;20.614;2023-09-12T07:46:07;23.80;;;16.63;;
20441;SDS011;10380;52.102;20.614;2023-09-12T07:48:34;21.08;;;16.58;;
20441;SDS011;10380;52.102;20.614;2023-09-12T07:51:01;20.60;;;14.73;;
20441;SDS011;10380;52.102;20.614;2023-09-12T07:53:37;19.33;;;14.15;;
20441;SDS011;10380;52.102;20.614;2023-09-12T07:56:03;20.52;;;15.38;;
20441;SDS011;10380;52.102;20.614;2023-09-12T07:58:31;20.20;;;14.80;;
20441;SDS011;10380;52.102;20.614;2023-09-12T08:00:58;21.60;;;14.07;;
20441;SDS011;10380;52.102;20.614;2023-09-12T08:03:25;24.27;;;14.63;;
20441;SDS011;10380;52.102;20.614;2023-09-12T08:05:55;18.13;;;13.05;;
20441;SDS011;10380;52.102;20.614;2023-09-12T08:08:23;19.80;;;13.68;;
20441;SDS011;10380;52.102;20.614;2023-09-12T08:10:50;19.67;;;13.75;;
20441;SDS011;10380;52.102;20.614;2023-09-12T08:13:17;21.05;;;13.55;;
20441;SDS011;10380;52.102;20.614;2023-09-12T08:15:44;22.48;;;13.05;;
20441;SDS011;10380;52.102;20.614;2023-09-12T08:18:11;14.95;;;12.30;;
20441;SDS011;10380;52.102;20.614;2023-09-12T08:20:38;19.83;;;13.52;;
20441;SDS011;10380;52.102;20.614;2023-09-12T08:23:05;18.40;;;12.15;;
20441;SDS011;10380;52.102;20.614;2023-09-12T08:25:32;19.98;;;13.07;;
20441;SDS011;10380;52.102;20.614;2023-09-12T08:27:59;17.98;;;13.02;;
20441;SDS011;10380;52.102;20.614;2023-09-12T08:30:26;19.10;;;12.13;;
20441;SDS011;10380;52.102;20.614;2023-09-12T08:32:56;19.75;;;13.10;;
20441;SDS011;10380;52.102;20.614;2023-09-12T08:35:23;18.40;;;13.05;;
20441;SDS011;10380;52.102;20.614;2023-09-12T08:37:49;17.77;;;13.18;;
20441;SDS011;10380;52.102;20.614;2023-09-12T08:40:16;15.45;;;12.38;;
20441;SDS011;10380;52.102;20.614;2023-09-12T08:42:44;15.68;;;11.80;;
20441;SDS011;10380;52.102;20.614;2023-09-12T08:45:14;15.13;;;12.93;;
20441;SDS011;10380;52.102;20.614;2023-09-12T08:47:43;13.65;;;11.55;;
20441;SDS011;10380;52.102;20.614;2023-09-12T08:50:13;17.23;;;12.45;;
20441;SDS011;10380;52.102;20.614;2023-09-12T08:52:43;16.08;;;11.85;;
20441;SDS011;10380;52.102;20.614;2023-09-12T08:55:31;18.67;;;11.95;;
20441;SDS011;10380;52.102;20.614;2023-09-12T08:57:59;16.27;;;11.40;;
20441;SDS011;10380;52.102;20.614;2023-09-12T09:00:30;16.00;;;12.48;;
20441;SDS011;10380;52.102;20.614;2023-09-12T09:02:58;16.33;;;12.00;;
20441;SDS011;10380;52.102;20.614;2023-09-12T09:05:25;13.95;;;12.15;;
20441;SDS011;10380;52.102;20.614;2023-09-12T09:07:54;15.25;;;11.77;;
20441;SDS011;10380;52.102;20.614;2023-09-12T09:10:22;13.48;;;11.02;;
20441;SDS011;10380;52.102;20.614;2023-09-12T09:13:09;15.07;;;13.15;;
20441;SDS011;10380;52.102;20.614;2023-09-12T09:15:39;15.23;;;10.63;;
20441;SDS011;10380;52.102;20.614;2023-09-12T09:18:10;13.95;;;10.68;;
20441;SDS011;10380;52.102;20.614;2023-09-12T09:20:39;16.90;;;12.82;;
20441;SDS011;10380;52.102;20.614;2023-09-12T09:23:08;15.77;;;12.00;;
20441;SDS011;10380;52.102;20.614;2023-09-12T09:25:40;13.65;;;12.10;;
20441;SDS011;10380;52.102;20.614;2023-09-12T09:28:17;15.88;;;13.10;;
20441;SDS011;10380;52.102;20.614;2023-09-12T09:30:46;12.20;;;10.38;;
20441;SDS011;10380;52.102;20.614;2023-09-12T09:33:14;14.90;;;11.95;;
20441;SDS011;10380;52.102;20.614;2023-09-12T09:35:42;15.23;;;11.02;;
20441;SDS011;10380;52.102;20.614;2023-09-12T09:38:16;12.90;;;10.75;;
20441;SDS011;10380;52.102;20.614;2023-09-12T09:40:46;16.27;;;11.93;;
20441;SDS011;10380;52.102;20.614;2023-09-12T09:43:13;13.90;;;11.25;;
20441;SDS011;10380;52.102;20.614;2023-09-12T09:45:51;16.20;;;11.73;;
20441;SDS011;10380;52.102;20.614;2023-09-12T09:50:46;36.95;;;13.73;;
20441;SDS011;10380;52.102;20.614;2023-09-12T09:53:13;16.05;;;11.63;;
20441;SDS011;10380;52.102;20.614;2023-09-12T09:55:43;15.43;;;12.25;;
20441;SDS011;10380;52.102;20.614;2023-09-12T09:58:16;14.23;;;12.00;;
20441;SDS011;10380;52.102;20.614;2023-09-12T10:00:45;17.73;;;12.35;;
20441;SDS011;10380;52.102;20.614;2023-09-12T10:03:17;15.27;;;10.77;;
20441;SDS011;10380;52.102;20.614;2023-09-12T10:05:47;13.40;;;10.55;;
20441;SDS011;10380;52.102;20.614;2023-09-12T10:08:23;13.35;;;11.48;;
20441;SDS011;10380;52.102;20.614;2023-09-12T10:10:54;15.88;;;11.48;;
20441;SDS011;10380;52.102;20.614;2023-09-12T10:13:22;12.48;;;11.00;;
20441;SDS011;10380;52.102;20.614;2023-09-12T10:15:53;12.00;;;10.73;;
20441;SDS011;10380;52.102;20.614;2023-09-12T10:18:22;11.85;;;10.65;;
20441;SDS011;10380;52.102;20.614;2023-09-12T10:21:05;11.45;;;10.35;;
20441;SDS011;10380;52.102;20.614;2023-09-12T10:23:44;11.82;;;10.43;;
20441;SDS011;10380;52.102;20.614;2023-09-12T10:26:12;11.82;;;10.73;;
20441;SDS011;10380;52.102;20.614;2023-09-12T10:28:40;11.73;;;10.50;;
20441;SDS011;10380;52.102;20.614;2023-09-12T10:31:11;11.43;;;9.70;;
20441;SDS011;10380;52.102;20.614;2023-09-12T10:33:43;10.60;;;9.50;;
20441;SDS011;10380;52.102;20.614;2023-09-12T10:36:15;10.88;;;9.82;;
20441;SDS011;10380;52.102;20.614;2023-09-12T10:38:49;11.93;;;10.07;;
20441;SDS011;10380;52.102;20.614;2023-09-12T10:41:25;13.88;;;10.68;;
20441;SDS011;10380;52.102;20.614;2023-09-12T10:43:56;11.98;;;10.57;;
20441;SDS011;10380;52.102;20.614;2023-09-12T10:46:29;11.63;;;10.40;;
20441;SDS011;10380;52.102;20.614;2023-09-12T10:48:56;12.82;;;9.88;;
20441;SDS011;10380;52.102;20.614;2023-09-12T10:51:24;10.23;;;9.23;;
20441;SDS011;10380;52.102;20.614;2023-09-12T10:53:51;11.45;;;10.20;;
20441;SDS011;10380;52.102;20.614;2023-09-12T10:56:20;11.93;;;9.60;;
20441;SDS011;10380;52.102;20.614;2023-09-12T11:01:43;11.10;;;9.98;;
20441;SDS011;10380;52.102;20.614;2023-09-12T11:06:47;12.15;;;10.55;;
20441;SDS011;10380;52.102;20.614;2023-09-12T11:09:15;12.93;;;10.43;;
20441;SDS011;10380;52.102;20.614;2023-09-12T11:11:43;13.60;;;10.15;;
20441;SDS011;10380;52.102;20.614;2023-09-12T11:14:13;11.63;;;10.40;;
20441;SDS011;10380;52.102;20.614;2023-09-12T11:16:41;12.32;;;11.23;;
20441;SDS011;10380;52.102;20.614;2023-09-12T11:19:19;13.85;;;10.07;;
20441;SDS011;10380;52.102;20.614;2023-09-12T11:21:50;11.23;;;10.07;;
20441;SDS011;10380;52.102;20.614;2023-09-12T11:24:24;16.85;;;10.15;;
20441;SDS011;10380;52.102;20.614;2023-09-12T11:26:52;14.68;;;10.68;;
20441;SDS011;10380;52.102;20.614;2023-09-12T11:29:20;12.23;;;10.63;;
20441;SDS011;10380;52.102;20.614;2023-09-12T11:31:52;11.43;;;9.63;;
20441;SDS011;10380;52.102;20.614;2023-09-12T11:34:26;12.95;;;10.68;;
20441;SDS011;10380;52.102;20.614;2023-09-12T11:36:55;11.60;;;10.50;;
20441;SDS011;10380;52.102;20.614;2023-09-12T11:39:24;11.63;;;10.27;;
20441;SDS011;10380;52.102;20.614;2023-09-12T11:41:52;11.48;;;10.25;;
20441;SDS011;10380;52.102;20.614;2023-09-12T11:44:21;11.15;;;10.05;;
20441;SDS011;10380;52.102;20.614;2023-09-12T11:46:49;13.32;;;10.40;;
20441;SDS011;10380;52.102;20.614;2023-09-12T11:49:16;11.23;;;10.02;;
20441;SDS011;10380;52.102;20.614;2023-09-12T11:51:50;13.85;;;10.52;;
20441;SDS011;10380;52.102;20.614;2023-09-12T11:54:20;12.18;;;10.43;;
20441;SDS011;10380;52.102;20.614;2023-09-12T11:56:51;12.32;;;9.85;;
20441;SDS011;10380;52.102;20.614;2023-09-12T11:59:23;13.82;;;10.65;;
20441;SDS011;10380;52.102;20.614;2023-09-12T12:01:50;13.43;;;10.18;;
20441;SDS011;10380;52.102;20.614;2023-09-12T12:04:20;11.40;;;10.20;;
20441;SDS011;10380;52.102;20.614;2023-09-12T12:06:52;11.95;;;9.20;;
20441;SDS011;10380;52.102;20.614;2023-09-12T12:09:19;10.43;;;9.35;;
20441;SDS011;10380;52.102;20.614;2023-09-12T12:11:46;10.63;;;9.70;;
20441;SDS011;10380;52.102;20.614;2023-09-12T12:14:14;11.48;;;9.50;;
20441;SDS011;10380;52.102;20.614;2023-09-12T12:16:43;12.32;;;10.32;;
20441;SDS011;10380;52.102;20.614;2023-09-12T12:19:11;13.57;;;9.60;;
20441;SDS011;10380;52.102;20.614;2023-09-12T12:21:39;15.27;;;10.52;;
20441;SDS011;10380;52.102;20.614;2023-09-12T12:24:08;12.43;;;9.23;;
20441;SDS011;10380;52.102;20.614;2023-09-12T12:26:43;11.48;;;9.32;;
20441;SDS011;10380;52.102;20.614;2023-09-12T12:29:10;10.68;;;9.35;;
20441;SDS011;10380;52.102;20.614;2023-09-12T12:31:37;11.43;;;8.88;;
20441;SDS011;10380;52.102;20.614;2023-09-12T12:34:05;9.93;;;8.95;;
20441;SDS011;10380;52.102;20.614;2023-09-12T12:36:55;9.68;;;8.25;;
20441;SDS011;10380;52.102;20.614;2023-09-12T12:39:24;11.82;;;8.88;;
20441;SDS011;10380;52.102;20.614;2023-09-12T12:41:52;10.63;;;8.77;;
20441;SDS011;10380;52.102;20.614;2023-09-12T12:44:20;9.52;;;8.45;;
20441;SDS011;10380;52.102;20.614;2023-09-12T12:46:49;11.07;;;8.10;;
20441;SDS011;10380;52.102;20.614;2023-09-12T12:49:16;9.13;;;8.20;;
20441;SDS011;10380;52.102;20.614;2023-09-12T12:51:43;9.65;;;8.75;;
20441;SDS011;10380;52.102;20.614;2023-09-12T12:54:10;9.88;;;8.85;;
20441;SDS011;10380;52.102;20.614;2023-09-12T12:56:38;11.27;;;8.55;;
20441;SDS011;10380;52.102;20.614;2023-09-12T12:59:06;9.55;;;8.65;;
20441;SDS011;10380;52.102;20.614;2023-09-12T13:01:35;10.77;;;8.82;;
20441;SDS011;10380;52.102;20.614;2023-09-12T13:04:05;9.40;;;8.43;;
20441;SDS011;10380;52.102;20.614;2023-09-12T13:06:33;10.60;;;8.65;;
20441;SDS011;10380;52.102;20.614;2023-09-12T13:09:05;9.60;;;8.75;;
20441;SDS011;10380;52.102;20.614;2023-09-12T13:11:33;12.70;;;8.73;;
20441;SDS011;10380;52.102;20.614;2023-09-12T13:14:04;10.35;;;9.32;;
20441;SDS011;10380;52.102;20.614;2023-09-12T13:16:38;9.70;;;8.82;;
20441;SDS011;10380;52.102;20.614;2023-09-12T13:19:07;9.90;;;8.90;;
20441;SDS011;10380;52.102;20.614;2023-09-12T13:21:34;11.32;;;9.10;;
20441;SDS011;10380;52.102;20.614;2023-09-12T13:24:01;9.73;;;8.73;;
20441;SDS011;10380;52.102;20.614;2023-09-12T13:26:28;12.80;;;9.73;;
20441;SDS011;10380;52.102;20.614;2023-09-12T13:28:56;11.07;;;8.70;;
20441;SDS011;10380;52.102;20.614;2023-09-12T13:31:23;15.52;;;8.88;;
20441;SDS011;10380;52.102;20.614;2023-09-12T13:33:51;10.82;;;8.63;;
20441;SDS011;10380;52.102;20.614;2023-09-12T13:36:19;10.52;;;8.18;;
20441;SDS011;10380;52.102;20.614;2023-09-12T13:38:46;9.70;;;8.30;;
20441;SDS011;10380;52.102;20.614;2023-09-12T13:41:15;9.27;;;8.38;;
20441;SDS011;10380;52.102;20.614;2023-09-12T13:43:42;9.45;;;8.00;;
20441;SDS011;10380;52.102;20.614;2023-09-12T13:46:12;10.90;;;8.98;;
20441;SDS011;10380;52.102;20.614;2023-09-12T13:48:39;9.82;;;8.63;;
20441;SDS011;10380;52.102;20.614;2023-09-12T13:51:06;11.52;;;8.65;;
20441;SDS011;10380;52.102;20.614;2023-09-12T13:53:33;9.60;;;8.60;;
20441;SDS011;10380;52.102;20.614;2023-09-12T13:56:00;14.02;;;9.25;;
20441;SDS011;10380;52.102;20.614;2023-09-12T13:58:48;10.40;;;9.38;;
20441;SDS011;10380;52.102;20.614;2023-09-12T14:01:17;10.82;;;9.38;;
20441;SDS011;10380;52.102;20.614;2023-09-12T14:03:58;13.30;;;10.07;;
20441;SDS011;10380;52.102;20.614;2023-09-12T14:06:26;12.23;;;8.85;;
20441;SDS011;10380;52.102;20.614;2023-09-12T14:08:53;10.35;;;8.98;;
20441;SDS011;10380;52.102;20.614;2023-09-12T14:11:20;11.70;;;8.90;;
20441;SDS011;10380;52.102;20.614;2023-09-12T14:14:01;10.40;;;9.23;;
20441;SDS011;10380;52.102;20.614;2023-09-12T14:16:42;9.98;;;9.00;;
20441;SDS011;10380;52.102;20.614;2023-09-12T14:19:14;10.98;;;8.70;;
20441;SDS011;10380;52.102;20.614;2023-09-12T14:21:42;10.95;;;9.70;;
20441;SDS011;10380;52.102;20.614;2023-09-12T14:24:14;10.07;;;9.07;;
20441;SDS011;10380;52.102;20.614;2023-09-12T14:26:42;9.93;;;8.95;;
20441;SDS011;10380;52.102;20.614;2023-09-12T14:29:11;11.30;;;9.75;;
20441;SDS011;10380;52.102;20.614;2023-09-12T14:31:40;10.82;;;8.52;;
20441;SDS011;10380;52.102;20.614;2023-09-12T14:34:16;11.60;;;8.75;;
20441;SDS011;10380;52.102;20.614;2023-09-12T14:36:43;10.80;;;9.20;;